createdAt,value
2018-08-12T00:01:48.886Z,6.80
2018-08-12T00:04:17.179Z,5.47
2018-08-12T00:06:45.490Z,7.17
2018-08-12T00:09:13.772Z,5.83
2018-08-12T00:11:42.074Z,5.40
2018-08-12T00:14:10.374Z,6.73
2018-08-12T00:16:38.675Z,5.77
2018-08-12T00:19:07.195Z,5.23
2018-08-12T00:21:35.515Z,5.27
2018-08-12T00:24:03.811Z,5.77
2018-08-12T00:26:32.140Z,6.90
2018-08-12T00:29:00.440Z,4.90
2018-08-12T00:31:28.758Z,4.63
2018-08-12T00:33:57.078Z,4.50
2018-08-12T00:36:25.396Z,4.17
2018-08-12T00:38:53.735Z,5.53
2018-08-12T00:41:22.099Z,5.20
2018-08-12T00:43:50.387Z,6.53
2018-08-12T00:46:18.710Z,5.03
2018-08-12T00:48:47.011Z,4.30
2018-08-12T00:51:15.331Z,4.10
2018-08-12T00:53:43.638Z,6.17
2018-08-12T00:56:11.954Z,4.73
2018-08-12T00:58:40.307Z,6.40
2018-08-12T01:01:08.917Z,5.57
2018-08-12T01:03:37.207Z,5.23
2018-08-12T01:06:05.515Z,4.87
2018-08-12T01:08:33.808Z,4.10
2018-08-12T01:11:02.261Z,6.60
2018-08-12T01:13:30.552Z,4.90
2018-08-12T01:15:58.887Z,6.13
2018-08-12T01:18:27.187Z,5.03
2018-08-12T01:20:55.496Z,4.87
2018-08-12T01:23:23.788Z,5.80
2018-08-12T01:25:52.099Z,5.30
2018-08-12T01:28:20.387Z,5.23
2018-08-12T01:30:48.739Z,6.20
2018-08-12T01:33:17.159Z,7.27
2018-08-12T01:35:45.477Z,5.63
2018-08-12T01:38:13.767Z,7.30
2018-08-12T01:40:42.071Z,6.77
2018-08-12T01:43:10.383Z,6.47
2018-08-12T01:45:38.670Z,6.57
2018-08-12T01:48:07.140Z,6.57
2018-08-12T01:50:35.459Z,6.77
2018-08-12T01:53:03.755Z,7.27
2018-08-12T01:55:32.129Z,9.10
2018-08-12T01:58:00.412Z,7.93
2018-08-12T02:00:28.823Z,8.33
2018-08-12T02:02:57.124Z,10.27
2018-08-12T02:05:25.415Z,10.57
2018-08-12T02:07:53.700Z,9.87
2018-08-12T02:10:22.001Z,9.00
2018-08-12T02:12:50.289Z,9.50
2018-08-12T02:15:18.599Z,9.90
2018-08-12T02:17:47.425Z,10.47
2018-08-12T02:20:15.709Z,9.83
2018-08-12T02:22:44.017Z,11.27
2018-08-12T02:25:12.730Z,9.77
2018-08-12T02:27:41.023Z,12.57
2018-08-12T02:30:11.147Z,10.27
2018-08-12T02:32:39.720Z,12.27
2018-08-12T02:35:08.607Z,11.90
2018-08-12T02:37:36.911Z,10.93
2018-08-12T02:40:06.396Z,11.37
2018-08-12T02:42:34.875Z,12.53
2018-08-12T02:45:03.203Z,14.23
2018-08-12T02:47:31.496Z,13.40
2018-08-12T02:49:59.803Z,13.33
2018-08-12T02:52:28.111Z,12.33
2018-08-12T02:54:56.436Z,13.50
2018-08-12T02:57:24.742Z,13.30
2018-08-12T02:59:53.055Z,11.87
2018-08-12T03:02:21.344Z,12.20
2018-08-12T03:04:49.628Z,14.10
2018-08-12T03:07:17.935Z,15.10
2018-08-12T03:09:46.240Z,14.83
2018-08-12T03:12:14.529Z,13.40
2018-08-12T03:14:42.843Z,13.70
2018-08-12T03:17:11.134Z,14.17
2018-08-12T03:19:39.439Z,14.17
2018-08-12T03:22:07.768Z,15.60
2018-08-12T03:24:36.071Z,13.97
2018-08-12T03:27:04.475Z,15.10
2018-08-12T03:29:32.791Z,14.50
2018-08-12T03:32:01.080Z,14.83
2018-08-12T03:34:29.383Z,14.03
2018-08-12T03:36:57.685Z,14.87
2018-08-12T03:39:25.974Z,15.83
2018-08-12T03:41:54.355Z,14.67
2018-08-12T03:44:22.648Z,17.07
2018-08-12T03:46:50.943Z,17.97
2018-08-12T03:49:19.263Z,13.97
2018-08-12T03:51:47.574Z,15.80
2018-08-12T03:54:15.875Z,15.20
2018-08-12T03:56:44.194Z,16.47
2018-08-12T03:59:12.479Z,12.43
2018-08-12T04:01:40.767Z,15.23
2018-08-12T04:04:09.068Z,15.00
2018-08-12T04:06:37.370Z,13.27
2018-08-12T04:09:07.384Z,14.17
2018-08-12T04:11:35.701Z,12.73
2018-08-12T04:14:04.543Z,14.20
2018-08-12T04:16:32.850Z,17.47
2018-08-12T04:19:01.584Z,13.50
2018-08-12T04:21:29.835Z,12.00
2018-08-12T04:23:58.150Z,14.97
2018-08-12T04:26:26.455Z,12.70
2018-08-12T04:28:54.746Z,13.43
2018-08-12T04:31:23.066Z,11.57
2018-08-12T04:33:51.387Z,11.87
2018-08-12T04:36:19.686Z,13.23
2018-08-12T04:38:48.020Z,11.17
2018-08-12T04:41:16.055Z,11.13
2018-08-12T04:43:44.339Z,14.37
2018-08-12T04:46:12.681Z,11.63
2018-08-12T04:48:41.416Z,12.47
2018-08-12T04:51:09.467Z,13.07
2018-08-12T04:53:37.755Z,9.83
2018-08-12T04:56:06.062Z,10.47
2018-08-12T04:58:34.427Z,12.07
2018-08-12T05:01:02.760Z,10.13
2018-08-12T05:03:30.808Z,11.87
2018-08-12T05:05:59.178Z,8.77
2018-08-12T05:08:28.474Z,10.20
2018-08-12T05:10:56.539Z,9.00
2018-08-12T05:13:24.826Z,10.13
2018-08-12T05:15:53.120Z,10.83
2018-08-12T05:18:21.406Z,8.73
2018-08-12T05:20:49.723Z,13.63
2018-08-12T05:23:18.198Z,9.37
2018-08-12T05:25:46.515Z,16.13
2018-08-12T05:28:14.836Z,12.23
2018-08-12T05:30:43.120Z,9.17
2018-08-12T05:33:11.424Z,8.17
2018-08-12T05:35:39.717Z,8.93
2018-08-12T05:38:08.004Z,8.37
2018-08-12T05:40:36.331Z,9.07
2018-08-12T05:43:04.621Z,9.80
2018-08-12T05:45:32.926Z,8.57
2018-08-12T05:48:01.211Z,9.93
2018-08-12T05:50:29.491Z,9.10
2018-08-12T05:52:57.783Z,9.73
2018-08-12T05:55:26.087Z,8.73
2018-08-12T05:57:54.376Z,8.93
2018-08-12T06:00:23.112Z,10.03
2018-08-12T06:02:51.537Z,9.03
2018-08-12T06:05:19.758Z,12.13
2018-08-12T06:07:48.059Z,8.87
2018-08-12T06:10:16.344Z,9.57
2018-08-12T06:12:44.642Z,10.87
2018-08-12T06:15:16.244Z,9.93
2018-08-12T06:17:44.992Z,9.50
2018-08-12T06:20:13.987Z,14.27
2018-08-12T06:22:42.288Z,11.13
2018-08-12T06:25:11.963Z,11.03
2018-08-12T06:27:40.491Z,10.63
2018-08-12T06:30:13.935Z,12.07
2018-08-12T06:32:42.246Z,9.77
2018-08-12T06:35:10.681Z,11.40
2018-08-12T06:37:38.747Z,12.87
2018-08-12T06:40:08.146Z,11.13
2018-08-12T06:42:36.282Z,8.37
2018-08-12T06:45:05.782Z,8.37
2018-08-12T06:47:33.951Z,7.00
2018-08-12T06:50:01.971Z,7.30
2018-08-12T06:52:29.990Z,5.20
2018-08-12T06:54:58.107Z,6.67
2018-08-12T06:57:26.143Z,6.80
2018-08-12T06:59:54.637Z,8.83
2018-08-12T07:02:22.710Z,7.73
2018-08-12T07:04:50.775Z,6.33
2018-08-12T07:07:18.795Z,6.93
2018-08-12T07:09:47.094Z,5.63
2018-08-12T07:12:15.411Z,8.53
2018-08-12T07:14:43.744Z,7.47
2018-08-12T07:17:12.026Z,8.00
2018-08-12T07:19:40.330Z,5.53
2018-08-12T07:22:08.627Z,4.80
2018-08-12T07:24:36.997Z,5.63
2018-08-12T07:27:05.263Z,5.97
2018-08-12T07:29:33.559Z,6.40
2018-08-12T07:32:01.879Z,5.00
2018-08-12T07:34:30.190Z,5.67
2018-08-12T07:36:58.516Z,6.20
2018-08-12T07:39:26.888Z,5.93
2018-08-12T07:41:55.203Z,5.57
2018-08-12T07:44:23.556Z,6.17
2018-08-12T07:46:51.874Z,4.27
2018-08-12T07:49:20.213Z,5.13
2018-08-12T07:51:48.483Z,4.20
2018-08-12T07:54:16.892Z,5.13
2018-08-12T07:56:45.196Z,3.90
2018-08-12T07:59:13.503Z,5.37
2018-08-12T08:01:41.795Z,4.00
2018-08-12T08:04:10.111Z,4.50
2018-08-12T08:06:38.616Z,3.80
2018-08-12T08:09:08.917Z,3.40
2018-08-12T08:11:37.216Z,3.73
2018-08-12T08:14:05.554Z,2.53
2018-08-12T08:16:33.850Z,4.07
2018-08-12T08:19:02.170Z,3.27
2018-08-12T08:21:30.484Z,2.00
2018-08-12T08:23:58.993Z,3.03
2018-08-12T08:26:27.471Z,2.57
2018-08-12T08:28:55.804Z,3.33
2018-08-12T08:31:24.147Z,2.43
2018-08-12T08:33:52.478Z,2.53
2018-08-12T08:36:20.797Z,2.27
2018-08-12T08:38:49.113Z,2.73
2018-08-12T08:41:17.413Z,2.40
2018-08-12T08:43:45.716Z,3.30
2018-08-12T08:46:14.043Z,4.23
2018-08-12T08:48:42.351Z,2.90
2018-08-12T08:51:10.534Z,4.47
2018-08-12T08:53:38.995Z,5.80
2018-08-12T08:56:07.393Z,1.43
2018-08-12T08:58:35.665Z,2.85
2018-08-12T09:01:03.975Z,2.80
2018-08-12T09:03:32.294Z,2.90
2018-08-12T09:06:00.616Z,2.27
2018-08-12T09:08:29.165Z,1.17
2018-08-12T09:10:57.262Z,2.62
2018-08-12T09:13:25.579Z,1.87
2018-08-12T09:15:53.880Z,3.45
2018-08-12T09:18:22.290Z,2.20
2018-08-12T09:20:50.517Z,1.72
2018-08-12T09:23:18.827Z,1.87
2018-08-12T09:25:47.453Z,2.27
2018-08-12T09:28:15.761Z,1.95
2018-08-12T09:30:44.079Z,2.87
2018-08-12T09:33:12.392Z,2.87
2018-08-12T09:35:40.683Z,2.00
2018-08-12T09:38:09.184Z,3.83
2018-08-12T09:40:37.484Z,2.22
2018-08-12T09:43:05.841Z,2.55
2018-08-12T09:45:34.159Z,1.92
2018-08-12T09:48:02.559Z,2.77
2018-08-12T09:50:30.892Z,3.70
2018-08-12T09:52:59.228Z,2.35
2018-08-12T09:55:27.549Z,2.67
2018-08-12T09:57:55.892Z,2.10
2018-08-12T10:00:29.214Z,2.95
2018-08-12T10:02:58.073Z,2.00
2018-08-12T10:05:26.371Z,3.12
2018-08-12T10:07:54.704Z,5.47
2018-08-12T10:10:23.041Z,6.87
2018-08-12T10:12:51.344Z,3.87
2018-08-12T10:15:19.654Z,4.03
2018-08-12T10:17:49.963Z,3.80
2018-08-12T10:20:18.274Z,4.95
2018-08-12T10:22:46.603Z,13.90
2018-08-12T10:25:14.923Z,5.55
2018-08-12T10:27:43.243Z,2.90
2018-08-12T10:30:13.713Z,4.08
2018-08-12T10:32:42.021Z,4.80
2018-08-12T10:35:11.770Z,3.20
2018-08-12T10:37:40.571Z,4.75
2018-08-12T10:40:11.216Z,7.33
2018-08-12T10:42:39.589Z,4.50
2018-08-12T10:45:09.384Z,1.72
2018-08-12T10:47:37.873Z,11.08
2018-08-12T10:50:08.674Z,3.02
2018-08-12T10:52:37.004Z,1.67
2018-08-12T10:55:05.772Z,5.97
2018-08-12T10:57:34.173Z,1.57
2018-08-12T11:00:02.554Z,2.70
2018-08-12T11:02:30.927Z,2.92
2018-08-12T11:04:59.720Z,1.72
2018-08-12T11:07:28.179Z,2.37
2018-08-12T11:09:56.533Z,2.22
2018-08-12T11:12:24.973Z,3.12
2018-08-12T11:14:53.257Z,2.67
2018-08-12T11:17:21.559Z,3.40
2018-08-12T11:19:49.867Z,2.15
2018-08-12T11:22:18.170Z,4.65
2018-08-12T11:24:46.462Z,2.83
2018-08-12T11:27:14.812Z,1.80
2018-08-12T11:29:43.117Z,2.65
2018-08-12T11:32:11.412Z,2.42
2018-08-12T11:34:39.776Z,1.55
2018-08-12T11:37:08.216Z,2.17
2018-08-12T11:39:36.547Z,1.95
2018-08-12T11:42:05.836Z,3.35
2018-08-12T11:44:35.031Z,1.67
2018-08-12T11:47:03.400Z,1.50
2018-08-12T11:49:31.723Z,2.60
2018-08-12T11:52:00.216Z,4.80
2018-08-12T11:54:28.792Z,1.85
2018-08-12T11:56:57.242Z,2.20
2018-08-12T11:59:25.752Z,3.87
2018-08-12T12:01:54.439Z,2.52
2018-08-12T12:04:23.055Z,2.40
2018-08-12T12:06:51.363Z,1.67
2018-08-12T12:09:19.721Z,2.45
2018-08-12T12:11:48.156Z,3.40
2018-08-12T12:14:16.535Z,3.98
2018-08-12T12:16:45.289Z,4.80
2018-08-12T12:19:14.076Z,1.70
2018-08-12T12:21:42.609Z,2.80
2018-08-12T12:24:11.191Z,2.05
2018-08-12T12:26:39.760Z,2.15
2018-08-12T12:29:08.839Z,2.72
2018-08-12T12:31:37.195Z,1.75
2018-08-12T12:34:06.608Z,2.62
2018-08-12T12:36:35.129Z,2.15
2018-08-12T12:39:04.767Z,2.47
2018-08-12T12:41:33.313Z,1.45
2018-08-12T12:44:02.175Z,1.80
2018-08-12T12:46:32.161Z,2.83
2018-08-12T12:49:00.935Z,2.33
2018-08-12T12:51:29.511Z,3.00
2018-08-12T12:53:58.154Z,2.15
2018-08-12T12:56:27.048Z,3.30
2018-08-12T12:58:57.356Z,2.50
2018-08-12T13:01:26.940Z,3.08
2018-08-12T13:03:55.243Z,1.05
2018-08-12T13:06:23.868Z,2.12
2018-08-12T13:08:52.184Z,2.37
2018-08-12T13:11:20.487Z,2.27
2018-08-12T13:13:49.745Z,1.30
2018-08-12T13:16:18.151Z,2.25
2018-08-12T13:18:46.600Z,2.27
2018-08-12T13:21:14.935Z,2.90
2018-08-12T13:23:43.255Z,3.30
2018-08-12T13:26:11.941Z,2.87
2018-08-12T13:28:40.610Z,1.90
2018-08-12T13:31:09.060Z,2.02
2018-08-12T13:33:38.895Z,1.95
2018-08-12T13:36:07.197Z,1.87
2018-08-12T13:38:36.323Z,2.50
2018-08-12T13:41:05.048Z,2.08
2018-08-12T13:43:33.365Z,2.37
2018-08-12T13:46:02.373Z,2.30
2018-08-12T13:48:30.679Z,1.70
2018-08-12T13:51:00.267Z,2.20
2018-08-12T13:53:28.639Z,1.05
2018-08-12T13:55:57.340Z,2.55
2018-08-12T13:58:25.633Z,0.72
2018-08-12T14:00:53.973Z,2.10
2018-08-12T14:03:23.243Z,0.90
2018-08-12T14:05:52.018Z,2.25
2018-08-12T14:08:20.317Z,2.80
2018-08-12T14:10:48.627Z,2.70
2018-08-12T14:13:17.323Z,0.90
2018-08-12T14:15:47.680Z,1.37
2018-08-12T14:18:16.527Z,2.15
2018-08-12T14:20:44.824Z,1.75
2018-08-12T14:23:13.577Z,1.87
2018-08-12T14:25:41.901Z,2.15
2018-08-12T14:28:10.212Z,1.70
2018-08-12T14:30:38.531Z,1.27
2018-08-12T14:33:07.265Z,1.27
2018-08-12T14:35:35.995Z,1.12
2018-08-12T14:38:04.775Z,1.95
2018-08-12T14:40:33.484Z,3.08
2018-08-12T14:43:01.876Z,1.42
2018-08-12T14:45:30.593Z,2.92
2018-08-12T14:47:58.870Z,1.60
2018-08-12T14:50:29.339Z,1.70
2018-08-12T14:52:58.708Z,1.32
2018-08-12T14:55:27.760Z,1.30
2018-08-12T14:57:56.385Z,1.90
2018-08-12T15:00:25.063Z,1.67
2018-08-12T15:02:53.612Z,1.25
2018-08-12T15:05:22.080Z,3.25
2018-08-12T15:07:50.404Z,2.37
2018-08-12T15:10:19.067Z,2.25
2018-08-12T15:12:47.368Z,1.40
2018-08-12T15:15:17.451Z,2.15
2018-08-12T15:17:46.381Z,2.02
2018-08-12T15:20:15.474Z,1.52
2018-08-12T15:22:45.554Z,1.32
2018-08-12T15:25:16.001Z,4.78
2018-08-12T15:27:44.752Z,1.10
2018-08-12T15:30:14.587Z,2.65
2018-08-12T15:32:43.868Z,1.37
2018-08-12T15:35:12.924Z,1.70
2018-08-12T15:37:41.259Z,3.75
2018-08-12T15:40:11.628Z,2.15
2018-08-12T15:42:41.321Z,2.55
2018-08-12T15:45:12.049Z,1.15
2018-08-12T15:47:40.968Z,2.33
2018-08-12T15:50:10.059Z,2.35
2018-08-12T15:52:38.847Z,3.05
2018-08-12T15:55:08.962Z,4.00
2018-08-12T15:57:38.001Z,2.35
2018-08-12T16:00:11.826Z,1.82
2018-08-12T16:02:40.175Z,2.35
2018-08-12T16:05:09.476Z,2.15
2018-08-12T16:07:37.809Z,3.02
2018-08-12T16:10:09.596Z,2.02
2018-08-12T16:12:38.340Z,2.87
2018-08-12T16:15:08.775Z,2.00
2018-08-12T16:17:37.372Z,3.60
2018-08-12T16:20:07.498Z,3.08
2018-08-12T16:22:36.367Z,3.37
2018-08-12T16:25:06.975Z,4.08
2018-08-12T16:27:35.931Z,2.27
2018-08-12T16:30:04.864Z,2.67
2018-08-12T16:32:34.499Z,2.15
2018-08-12T16:35:03.336Z,3.95
2018-08-12T16:37:31.659Z,4.17
2018-08-12T16:40:01.930Z,5.62
2018-08-12T16:42:30.268Z,7.45
2018-08-12T16:44:58.627Z,7.83
2018-08-12T16:47:27.080Z,13.43
2018-08-12T16:49:55.415Z,8.75
2018-08-12T16:52:23.780Z,5.08
2018-08-12T16:54:53.403Z,3.80
2018-08-12T16:57:21.689Z,3.65
2018-08-12T16:59:51.595Z,3.60
2018-08-12T17:02:19.935Z,4.35
2018-08-12T17:04:48.335Z,4.78
2018-08-12T17:07:16.988Z,3.90
2018-08-12T17:09:45.852Z,2.35
2018-08-12T17:12:14.148Z,3.47
2018-08-12T17:14:42.880Z,2.67
2018-08-12T17:17:13.789Z,3.37
2018-08-12T17:19:42.080Z,1.65
2018-08-12T17:22:10.779Z,3.00
2018-08-12T17:24:39.136Z,1.40
2018-08-12T17:27:07.791Z,2.50
2018-08-12T17:29:36.476Z,1.80
2018-08-12T17:32:04.807Z,2.75
2018-08-12T17:34:33.121Z,2.45
2018-08-12T17:37:02.335Z,4.37
2018-08-12T17:39:30.621Z,3.90
2018-08-12T17:41:58.947Z,4.17
2018-08-12T17:44:28.340Z,4.47
2018-08-12T17:46:57.596Z,2.33
2018-08-12T17:49:25.912Z,2.60
2018-08-12T17:51:55.830Z,3.22
2018-08-12T17:54:24.630Z,3.10
2018-08-12T17:56:52.964Z,2.50
2018-08-12T17:59:23.083Z,1.90
2018-08-12T18:01:51.390Z,1.80
2018-08-12T18:04:19.772Z,3.85
2018-08-12T18:06:49.951Z,3.75
2018-08-12T18:09:18.265Z,3.80
2018-08-12T18:11:47.135Z,2.55
2018-08-12T18:14:17.683Z,3.35
2018-08-12T18:16:45.987Z,3.55
2018-08-12T18:19:14.982Z,3.47
2018-08-12T18:21:43.294Z,1.75
2018-08-12T18:24:12.754Z,2.50
2018-08-12T18:26:41.879Z,3.00
2018-08-12T18:29:10.230Z,3.27
2018-08-12T18:31:38.546Z,2.77
2018-08-12T18:34:06.867Z,2.95
2018-08-12T18:36:35.167Z,3.35
2018-08-12T18:39:06.309Z,4.62
2018-08-12T18:41:34.704Z,2.33
2018-08-12T18:44:04.440Z,4.10
2018-08-12T18:46:32.770Z,3.98
2018-08-12T18:49:01.788Z,4.50
2018-08-12T18:51:30.887Z,2.60
2018-08-12T18:53:59.239Z,4.62
2018-08-12T18:56:27.579Z,3.45
2018-08-12T18:58:57.284Z,5.65
2018-08-12T19:01:26.302Z,3.63
2018-08-12T19:03:56.092Z,6.23
2018-08-12T19:06:25.900Z,3.87
2018-08-12T19:08:55.745Z,7.33
2018-08-12T19:11:25.087Z,6.63
2018-08-12T19:13:55.335Z,4.57
2018-08-12T19:16:23.660Z,4.30
2018-08-12T19:18:52.111Z,4.07
2018-08-12T19:21:22.141Z,4.13
2018-08-12T19:23:50.478Z,6.63
2018-08-12T19:26:19.524Z,3.57
2018-08-12T19:28:47.899Z,3.80
2018-08-12T19:31:16.936Z,4.87
2018-08-12T19:33:45.840Z,5.77
2018-08-12T19:36:14.925Z,3.33
2018-08-12T19:38:43.230Z,6.90
2018-08-12T19:41:11.540Z,4.53
2018-08-12T19:43:40.750Z,3.77
2018-08-12T19:46:09.265Z,3.57
2018-08-12T19:48:39.183Z,3.10
2018-08-12T19:51:08.352Z,5.67
2018-08-12T19:53:37.024Z,4.47
2018-08-12T19:56:05.371Z,5.33
2018-08-12T19:58:33.693Z,4.00
2018-08-12T20:01:02.891Z,7.60
2018-08-12T20:03:31.260Z,5.90
2018-08-12T20:06:00.176Z,6.30
2018-08-12T20:08:29.478Z,4.10
2018-08-12T20:10:58.398Z,5.43
2018-08-12T20:13:26.864Z,3.83
2018-08-12T20:15:55.296Z,5.57
2018-08-12T20:18:23.631Z,8.33
2018-08-12T20:20:51.945Z,5.33
2018-08-12T20:23:21.249Z,5.87
2018-08-12T20:25:50.146Z,4.10
2018-08-12T20:28:19.431Z,5.97
2018-08-12T20:30:48.110Z,7.13
2018-08-12T20:33:16.867Z,4.87
2018-08-12T20:35:45.432Z,6.40
2018-08-12T20:38:14.148Z,7.43
2018-08-12T20:40:42.794Z,5.87
2018-08-12T20:43:11.100Z,4.47
2018-08-12T20:45:39.782Z,4.10
2018-08-12T20:48:08.108Z,4.77
2018-08-12T20:50:36.671Z,3.97
2018-08-12T20:53:05.001Z,5.50
2018-08-12T20:55:33.489Z,6.63
2018-08-12T20:58:02.092Z,9.07
2018-08-12T21:00:30.432Z,6.60
2018-08-12T21:02:58.727Z,4.43
2018-08-12T21:05:27.100Z,5.23
2018-08-12T21:07:55.464Z,6.23
2018-08-12T21:10:23.823Z,3.90
2018-08-12T21:12:52.151Z,6.63
2018-08-12T21:15:20.450Z,4.33
2018-08-12T21:17:48.757Z,5.77
2018-08-12T21:20:17.080Z,4.43
2018-08-12T21:22:45.362Z,4.93
2018-08-12T21:25:13.657Z,4.40
2018-08-12T21:27:41.971Z,5.63
2018-08-12T21:30:10.287Z,3.83
2018-08-12T21:32:38.575Z,4.30
2018-08-12T21:35:07.007Z,4.47
2018-08-12T21:37:35.592Z,4.03
2018-08-12T21:40:04.062Z,3.67
2018-08-12T21:42:32.587Z,6.30
2018-08-12T21:45:00.920Z,5.63
2018-08-12T21:47:29.330Z,7.60
2018-08-12T21:49:57.664Z,5.77
2018-08-12T21:52:26.222Z,4.73
2018-08-12T21:54:54.512Z,4.37
2018-08-12T21:57:22.867Z,3.87
2018-08-12T21:59:51.168Z,4.50
2018-08-12T22:02:19.483Z,3.93
2018-08-12T22:04:47.794Z,3.67
2018-08-12T22:07:16.075Z,3.73
2018-08-12T22:09:44.409Z,4.07
2018-08-12T22:12:12.728Z,4.43
2018-08-12T22:14:41.048Z,5.47
2018-08-12T22:17:09.350Z,5.33
2018-08-12T22:19:37.656Z,5.47
2018-08-12T22:22:05.955Z,6.67
2018-08-12T22:24:34.240Z,3.77
2018-08-12T22:27:02.542Z,4.73
2018-08-12T22:29:30.840Z,5.37
2018-08-12T22:31:59.135Z,6.67
2018-08-12T22:34:27.504Z,6.47
2018-08-12T22:36:55.812Z,6.63
2018-08-12T22:39:24.103Z,5.63
2018-08-12T22:41:52.416Z,7.67
2018-08-12T22:44:20.716Z,5.10
2018-08-12T22:46:49.026Z,4.90
2018-08-12T22:49:17.327Z,5.63
2018-08-12T22:51:45.639Z,4.87
2018-08-12T22:54:13.954Z,4.83
2018-08-12T22:56:42.272Z,6.00
2018-08-12T22:59:10.556Z,5.03
2018-08-12T23:01:38.908Z,7.93
2018-08-12T23:04:07.637Z,5.27
2018-08-12T23:06:36.023Z,6.87
2018-08-12T23:09:06.268Z,5.97
2018-08-12T23:12:37.860Z,4.83
2018-08-12T23:15:17.979Z,5.27
2018-08-12T23:17:46.268Z,3.33
2018-08-12T23:20:14.593Z,3.87
2018-08-12T23:22:42.921Z,3.70
2018-08-12T23:25:11.199Z,4.47
2018-08-12T23:27:39.512Z,5.10
2018-08-12T23:30:08.563Z,4.70
2018-08-12T23:32:37.469Z,3.90
2018-08-12T23:35:05.763Z,4.03
2018-08-12T23:37:34.204Z,3.63
2018-08-12T23:40:02.560Z,4.03
2018-08-12T23:42:30.852Z,4.87
2018-08-12T23:44:59.147Z,4.40
2018-08-12T23:47:27.457Z,4.50
2018-08-12T23:49:55.782Z,3.17
2018-08-12T23:52:24.084Z,4.43
2018-08-12T23:54:52.396Z,2.87
2018-08-12T23:57:20.723Z,4.70
2018-08-12T23:59:49.019Z,4.90
